Time;durP1;ratioP1;P1;durP2;ratioP2;P2;SDS_P1;SDS_P2;PMS_P1;PMS_P2;Temp;Humidity;BMP_temperature;BMP_pressure;BME280_temperature;BME280_humidity;BME280_pressure;Samples;Min_cycle;Max_cycle;Signal;HPM_P1;HPM_P2
2023/05/03 00:02:30;;;;;;;3.92;3.28;;;;;;;;;;10514323;28;20410;-83
2023/05/03 00:07:34;;;;;;;3.08;2.70;;;;;;;;;;10527977;28;20404;-83
2023/05/03 00:12:38;;;;;;;5.28;4.10;;;;;;;;;;10529667;28;20516;-83
2023/05/03 00:17:40;;;;;;;4.30;3.90;;;;;;;;;;10528914;28;21112;-83
2023/05/03 00:22:43;;;;;;;5.30;4.40;;;;;;;;;;10529069;28;20485;-83
2023/05/03 00:27:44;;;;;;;6.65;4.40;;;;;;;;;;10525637;28;20414;-83
2023/05/03 00:32:46;;;;;;;5.70;4.33;;;;;;;;;;10529844;28;20400;-83
2023/05/03 00:37:49;;;;;;;4.55;3.80;;;;;;;;;;10525028;28;20430;-83
2023/05/03 00:42:51;;;;;;;3.80;3.47;;;;;;;;;;10529025;28;20404;-83
2023/05/03 00:47:53;;;;;;;4.57;3.25;;;;;;;;;;10532597;28;20402;-82
2023/05/03 00:52:56;;;;;;;4.05;3.45;;;;;;;;;;10530482;28;20418;-82
2023/05/03 00:57:58;;;;;;;4.72;3.90;;;;;;;;;;10528326;28;20510;-82
2023/05/03 01:03:00;;;;;;;4.40;3.80;;;;;;;;;;10534971;28;20414;-82
2023/05/03 01:08:11;;;;;;;5.17;4.10;;;;;;;;;;10525693;28;20402;-83
2023/05/03 01:13:22;;;;;;;6.63;4.68;;;;;;;;;;10528884;28;20414;-82
2023/05/03 01:18:28;;;;;;;9.68;4.80;;;;;;;;;;10518574;28;20503;-83
2023/05/03 01:23:36;;;;;;;5.72;4.90;;;;;;;;;;10516610;28;20454;-83
2023/05/03 01:28:39;;;;;;;5.82;4.90;;;;;;;;;;10517462;28;20487;-82
2023/05/03 01:33:48;;;;;;;6.60;4.93;;;;;;;;;;10523222;28;20404;-83
2023/05/03 01:38:50;;;;;;;6.25;5.13;;;;;;;;;;10517893;28;20424;-82
2023/05/03 01:43:54;;;;;;;6.60;5.40;;;;;;;;;;10520735;28;20400;-82
2023/05/03 01:48:56;;;;;;;8.18;5.40;;;;;;;;;;10515239;28;20409;-82
2023/05/03 01:53:58;;;;;;;6.40;5.43;;;;;;;;;;10521063;28;20404;-82
2023/05/03 01:59:03;;;;;;;7.70;5.60;;;;;;;;;;10511547;28;21625;-82
2023/05/03 02:04:05;;;;;;;7.07;5.68;;;;;;;;;;10517344;28;20397;-82
2023/05/03 02:09:07;;;;;;;6.30;5.43;;;;;;;;;;10520943;28;20749;-83
2023/05/03 02:14:10;;;;;;;6.33;5.53;;;;;;;;;;10517307;28;20567;-82
2023/05/03 02:19:13;;;;;;;6.65;5.63;;;;;;;;;;10518585;28;20885;-83
2023/05/03 02:24:15;;;;;;;5.50;5.00;;;;;;;;;;10518864;28;20393;-82
2023/05/03 02:29:18;;;;;;;6.43;5.15;;;;;;;;;;10510803;28;20468;-83
2023/05/03 02:34:20;;;;;;;7.60;5.60;;;;;;;;;;10521888;28;20416;-82
2023/05/03 02:39:22;;;;;;;6.10;5.50;;;;;;;;;;10520377;28;20922;-82
2023/05/03 02:44:25;;;;;;;8.25;5.50;;;;;;;;;;10516067;28;20406;-83
2023/05/03 02:49:27;;;;;;;6.72;5.40;;;;;;;;;;10510398;28;20406;-82
2023/05/03 02:54:28;;;;;;;8.77;6.10;;;;;;;;;;10520616;28;20479;-82
2023/05/03 02:59:32;;;;;;;5.97;5.23;;;;;;;;;;10511947;28;20426;-82
2023/05/03 03:04:34;;;;;;;7.60;5.67;;;;;;;;;;10516614;28;20400;-82
2023/05/03 03:09:35;;;;;;;6.57;5.35;;;;;;;;;;10516840;28;20412;-82
2023/05/03 03:14:40;;;;;;;8.13;5.25;;;;;;;;;;10514865;28;20767;-82
2023/05/03 03:19:42;;;;;;;6.25;4.68;;;;;;;;;;10509964;28;20412;-82
2023/05/03 03:24:43;;;;;;;5.60;4.47;;;;;;;;;;10512036;28;20397;-82
2023/05/03 03:29:47;;;;;;;5.47;4.25;;;;;;;;;;10513320;28;20835;-82
2023/05/03 03:34:48;;;;;;;5.60;4.13;;;;;;;;;;10519350;28;20454;-82
2023/05/03 03:39:50;;;;;;;5.15;3.90;;;;;;;;;;10516848;28;20795;-82
2023/05/03 03:44:53;;;;;;;4.50;3.83;;;;;;;;;;10517002;28;20385;-82
2023/05/03 03:49:55;;;;;;;6.30;4.40;;;;;;;;;;10516371;28;20409;-82
2023/05/03 03:54:57;;;;;;;5.60;3.88;;;;;;;;;;10507842;28;20972;-83
2023/05/03 04:00:00;;;;;;;5.87;4.07;;;;;;;;;;10517051;28;20426;-83
2023/05/03 04:05:02;;;;;;;6.20;4.07;;;;;;;;;;10514274;28;20418;-82
2023/05/03 04:10:05;;;;;;;6.25;4.00;;;;;;;;;;10512923;28;20388;-82
2023/05/03 04:15:10;;;;;;;5.57;3.95;;;;;;;;;;10516794;28;20876;-82
2023/05/03 04:20:13;;;;;;;6.13;4.30;;;;;;;;;;10515964;28;21175;-82
2023/05/03 04:25:15;;;;;;;5.00;3.60;;;;;;;;;;10516938;28;20404;-82
2023/05/03 04:30:19;;;;;;;4.17;3.50;;;;;;;;;;10514893;28;20417;-82
2023/05/03 04:35:21;;;;;;;4.10;3.20;;;;;;;;;;10516313;28;20744;-83
2023/05/03 04:40:23;;;;;;;4.97;3.47;;;;;;;;;;10515906;28;20416;-82
2023/05/03 04:45:27;;;;;;;4.63;2.80;;;;;;;;;;10519157;28;20431;-82
2023/05/03 04:50:28;;;;;;;4.60;3.20;;;;;;;;;;10513419;28;20417;-82
2023/05/03 04:55:30;;;;;;;3.67;2.70;;;;;;;;;;10510166;28;20733;-84
2023/05/03 05:00:33;;;;;;;3.70;2.70;;;;;;;;;;10528662;28;20420;-83
2023/05/03 05:05:35;;;;;;;4.18;3.15;;;;;;;;;;10524036;28;20418;-83
2023/05/03 05:10:38;;;;;;;3.77;2.87;;;;;;;;;;10515278;28;20959;-82
2023/05/03 05:15:41;;;;;;;3.90;3.00;;;;;;;;;;10518115;28;20798;-82
2023/05/03 05:20:43;;;;;;;4.10;2.50;;;;;;;;;;10521230;28;20428;-83
2023/05/03 05:25:46;;;;;;;2.40;2.00;;;;;;;;;;10518395;28;20495;-83
2023/05/03 05:30:49;;;;;;;2.40;2.15;;;;;;;;;;10517609;28;20483;-84
2023/05/03 05:35:51;;;;;;;3.03;2.10;;;;;;;;;;10517907;28;20458;-84
2023/05/03 05:40:53;;;;;;;2.08;1.70;;;;;;;;;;10526303;28;20432;-86
2023/05/03 05:45:57;;;;;;;1.93;1.33;;;;;;;;;;10518123;28;20793;-86
2023/05/03 05:50:59;;;;;;;1.63;1.52;;;;;;;;;;10508522;28;20437;-86
2023/05/03 05:56:00;;;;;;;2.17;1.50;;;;;;;;;;10445225;28;20416;-86
2023/05/03 06:01:04;;;;;;;1.90;1.23;;;;;;;;;;10492402;28;20582;-83
2023/05/03 06:06:06;;;;;;;1.73;1.10;;;;;;;;;;10516677;28;20438;-83
2023/05/03 06:11:08;;;;;;;1.70;1.30;;;;;;;;;;10503515;28;20400;-83
2023/05/03 06:16:11;;;;;;;1.88;1.23;;;;;;;;;;10514100;28;20411;-84
2023/05/03 06:21:13;;;;;;;1.10;1.00;;;;;;;;;;10497072;28;20420;-85
2023/05/03 06:26:16;;;;;;;1.30;1.00;;;;;;;;;;10520292;28;20404;-85
2023/05/03 06:31:19;;;;;;;2.30;1.20;;;;;;;;;;10512462;28;20446;-85
2023/05/03 06:36:21;;;;;;;2.08;1.10;;;;;;;;;;10514237;28;20882;-84
2023/05/03 06:41:23;;;;;;;1.30;0.90;;;;;;;;;;10516269;28;20872;-85
2023/05/03 06:46:27;;;;;;;2.47;1.10;;;;;;;;;;10515388;28;20513;-85
2023/05/03 06:51:31;;;;;;;1.95;1.58;;;;;;;;;;10513365;28;20410;-84
2023/05/03 06:56:33;;;;;;;1.92;1.30;;;;;;;;;;10514072;28;20764;-85
2023/05/03 07:01:36;;;;;;;2.50;1.13;;;;;;;;;;10513075;28;20431;-85
2023/05/03 07:06:38;;;;;;;1.75;1.50;;;;;;;;;;10515979;28;20407;-84
2023/05/03 07:11:46;;;;;;;1.40;1.10;;;;;;;;;;10510040;28;20400;-85
2023/05/03 07:16:49;;;;;;;2.17;1.30;;;;;;;;;;10503615;28;20417;-85
2023/05/03 07:21:51;;;;;;;2.03;1.10;;;;;;;;;;10486580;28;20458;-84
2023/05/03 07:26:52;;;;;;;1.20;1.10;;;;;;;;;;10486930;28;20402;-85
2023/05/03 07:31:56;;;;;;;2.95;1.42;;;;;;;;;;10503651;28;20410;-84
2023/05/03 07:36:57;;;;;;;2.20;1.10;;;;;;;;;;10508394;28;20756;-85
2023/05/03 07:42:01;;;;;;;1.77;1.10;;;;;;;;;;10506153;28;20432;-84
2023/05/03 07:47:04;;;;;;;1.80;1.20;;;;;;;;;;10507648;28;20419;-84
2023/05/03 07:52:06;;;;;;;1.92;0.80;;;;;;;;;;10504711;28;20410;-84
2023/05/03 07:57:07;;;;;;;0.50;0.50;;;;;;;;;;10507547;28;20400;-84
2023/05/03 08:02:11;;;;;;;1.67;0.50;;;;;;;;;;10505416;28;20424;-84
2023/05/03 08:07:13;;;;;;;1.35;1.08;;;;;;;;;;10506677;28;20398;-84
2023/05/03 08:12:15;;;;;;;1.20;0.50;;;;;;;;;;10504308;28;20783;-83
2023/05/03 08:17:19;;;;;;;1.98;0.43;;;;;;;;;;10508504;28;20419;-83
2023/05/03 08:22:24;;;;;;;1.30;0.35;;;;;;;;;;10506473;28;20501;-83
2023/05/03 08:27:27;;;;;;;0.80;0.40;;;;;;;;;;10515748;28;20476;-83
2023/05/03 08:32:30;;;;;;;0.63;0.50;;;;;;;;;;10516182;28;20467;-85
2023/05/03 08:37:38;;;;;;;0.70;0.43;;;;;;;;;;10510916;28;20417;-84
2023/05/03 08:42:41;;;;;;;0.57;0.45;;;;;;;;;;10512241;28;20994;-85
2023/05/03 08:47:45;;;;;;;0.63;0.40;;;;;;;;;;10514726;28;20935;-84
2023/05/03 08:52:46;;;;;;;0.50;0.40;;;;;;;;;;10510752;28;20470;-84
2023/05/03 08:57:48;;;;;;;0.57;0.40;;;;;;;;;;10513943;28;20407;-84
2023/05/03 09:02:52;;;;;;;1.70;0.50;;;;;;;;;;10512256;28;20777;-84
2023/05/03 09:08:05;;;;;;;0.50;0.50;;;;;;;;;;10513055;28;20415;-85
2023/05/03 09:13:07;;;;;;;1.92;0.40;;;;;;;;;;10511494;28;20413;-85
2023/05/03 09:18:12;;;;;;;0.40;0.40;;;;;;;;;;10514406;28;20432;-84
2023/05/03 09:23:15;;;;;;;0.95;0.52;;;;;;;;;;10511133;28;20430;-82
2023/05/03 09:28:18;;;;;;;0.43;0.43;;;;;;;;;;10512616;28;20405;-84
2023/05/03 09:33:29;;;;;;;1.55;0.60;;;;;;;;;;10510310;28;20418;-84
2023/05/03 09:38:32;;;;;;;0.85;0.40;;;;;;;;;;10510866;28;20527;-84
2023/05/03 09:43:34;;;;;;;1.40;0.30;;;;;;;;;;10509704;28;20412;-84
2023/05/03 09:48:38;;;;;;;1.17;0.50;;;;;;;;;;10510735;28;20959;-84
2023/05/03 09:53:41;;;;;;;0.70;0.30;;;;;;;;;;10512386;28;20414;-85
2023/05/03 09:58:44;;;;;;;1.30;0.40;;;;;;;;;;10510295;28;20511;-84
2023/05/03 10:03:49;;;;;;;0.80;0.50;;;;;;;;;;10511498;28;20400;-84
2023/05/03 10:08:53;;;;;;;0.90;0.63;;;;;;;;;;10510865;28;20413;-84
2023/05/03 10:13:56;;;;;;;1.47;0.70;;;;;;;;;;10509664;28;20427;-85
2023/05/03 10:19:10;;;;;;;0.60;0.60;;;;;;;;;;10509827;28;20433;-84
2023/05/03 10:24:14;;;;;;;0.50;0.50;;;;;;;;;;10509262;28;20403;-85
2023/05/03 10:29:47;;;;;;;0.77;0.60;;;;;;;;;;10514570;28;20768;-84
2023/05/03 10:34:57;;;;;;;0.93;0.57;;;;;;;;;;10512478;28;20408;-85
2023/05/03 10:40:06;;;;;;;0.68;0.60;;;;;;;;;;10515636;28;20508;-84
2023/05/03 10:45:11;;;;;;;1.20;0.80;;;;;;;;;;10514567;28;20408;-85
2023/05/03 10:50:27;;;;;;;0.90;0.70;;;;;;;;;;10517926;28;20400;-84
2023/05/03 10:55:30;;;;;;;2.27;0.80;;;;;;;;;;10506393;28;20398;-85
2023/05/03 11:00:38;;;;;;;1.00;0.80;;;;;;;;;;10510086;28;20473;-84
2023/05/03 11:05:42;;;;;;;1.60;0.70;;;;;;;;;;10506585;28;20862;-84
2023/05/03 11:10:44;;;;;;;1.27;0.90;;;;;;;;;;10509189;28;20404;-84
2023/05/03 11:15:46;;;;;;;0.80;0.80;;;;;;;;;;10494508;28;20428;-84
2023/05/03 11:20:52;;;;;;;0.90;0.80;;;;;;;;;;10507227;28;20428;-84
2023/05/03 11:25:55;;;;;;;1.00;0.90;;;;;;;;;;10521506;28;20412;-84
2023/05/03 11:30:57;;;;;;;1.63;0.40;;;;;;;;;;10544651;28;20507;-84
2023/05/03 11:36:02;;;;;;;1.27;0.50;;;;;;;;;;10533457;28;20484;-83
2023/05/03 11:41:12;;;;;;;0.80;0.30;;;;;;;;;;10543621;28;20414;-82
2023/05/03 11:46:17;;;;;;;0.30;0.30;;;;;;;;;;10543605;28;20421;-84
2023/05/03 11:51:23;;;;;;;1.27;0.30;;;;;;;;;;10536875;28;20862;-83
2023/05/03 11:56:25;;;;;;;1.63;0.60;;;;;;;;;;10537204;28;20408;-84
2023/05/03 12:01:28;;;;;;;0.20;0.20;;;;;;;;;;10537183;28;20425;-83
2023/05/03 12:06:34;;;;;;;0.30;0.30;;;;;;;;;;10546776;28;20403;-82
2023/05/03 12:11:41;;;;;;;0.30;0.30;;;;;;;;;;10543039;28;20415;-83
2023/05/03 12:16:47;;;;;;;0.40;0.30;;;;;;;;;;10522385;28;20877;-84
2023/05/03 12:21:50;;;;;;;0.50;0.30;;;;;;;;;;10533194;28;20420;-84
2023/05/03 12:26:52;;;;;;;0.50;0.20;;;;;;;;;;10503053;28;20500;-85
2023/05/03 12:31:54;;;;;;;0.60;0.30;;;;;;;;;;10504249;28;20474;-84
2023/05/03 12:37:01;;;;;;;1.48;0.25;;;;;;;;;;10503449;28;20407;-84
2023/05/03 12:42:04;;;;;;;1.90;0.30;;;;;;;;;;10506356;28;20481;-84
2023/05/03 12:47:06;;;;;;;0.82;0.28;;;;;;;;;;10540180;28;20453;-85
2023/05/03 12:52:09;;;;;;;0.40;0.30;;;;;;;;;;10549445;28;20407;-84
2023/05/03 12:57:13;;;;;;;0.45;0.45;;;;;;;;;;10551258;28;20404;-84
2023/05/03 13:02:15;;;;;;;0.30;0.20;;;;;;;;;;10548147;28;20436;-84
2023/05/03 13:07:20;;;;;;;0.20;0.20;;;;;;;;;;10542653;28;20494;-84
2023/05/03 13:12:24;;;;;;;0.77;0.28;;;;;;;;;;10554046;28;20884;-84
2023/05/03 13:17:26;;;;;;;0.10;0.10;;;;;;;;;;10556832;28;20517;-85
2023/05/03 13:22:30;;;;;;;0.30;0.25;;;;;;;;;;10556751;28;20424;-84
2023/05/03 13:27:32;;;;;;;0.20;0.20;;;;;;;;;;10558478;28;20400;-85
2023/05/03 13:32:34;;;;;;;0.20;0.20;;;;;;;;;;10554761;28;20447;-85
2023/05/03 13:37:37;;;;;;;0.90;0.20;;;;;;;;;;10552363;28;21101;-84
2023/05/03 13:42:39;;;;;;;0.60;0.20;;;;;;;;;;10546469;28;20504;-84
2023/05/03 13:47:41;;;;;;;0.35;0.20;;;;;;;;;;10507180;28;20432;-84
2023/05/03 13:52:44;;;;;;;2.00;0.30;;;;;;;;;;10510016;22;20834;-85
2023/05/03 13:57:46;;;;;;;0.22;0.22;;;;;;;;;;10498474;28;20427;-85
2023/05/03 14:02:48;;;;;;;0.30;0.30;;;;;;;;;;10471897;28;20444;-85
2023/05/03 14:07:51;;;;;;;0.47;0.30;;;;;;;;;;10473821;28;20777;-85
2023/05/03 14:12:53;;;;;;;0.43;0.40;;;;;;;;;;10500248;28;20764;-85
2023/05/03 14:17:54;;;;;;;0.30;0.30;;;;;;;;;;10514682;28;20406;-85
2023/05/03 14:22:58;;;;;;;0.60;0.30;;;;;;;;;;10499995;28;20893;-86
2023/05/03 14:27:59;;;;;;;0.35;0.20;;;;;;;;;;10515155;28;20487;-86
2023/05/03 14:33:01;;;;;;;0.50;0.38;;;;;;;;;;10505120;28;20449;-86
2023/05/03 14:38:05;;;;;;;1.48;0.65;;;;;;;;;;10499006;28;20409;-85
2023/05/03 14:43:08;;;;;;;0.30;0.20;;;;;;;;;;10480953;28;20426;-85
2023/05/03 14:48:09;;;;;;;0.90;0.30;;;;;;;;;;10490529;28;20503;-86
2023/05/03 14:53:12;;;;;;;0.20;0.20;;;;;;;;;;10513838;28;20406;-85
2023/05/03 14:58:14;;;;;;;0.95;0.68;;;;;;;;;;10473228;28;20411;-85
2023/05/03 15:03:17;;;;;;;0.47;0.30;;;;;;;;;;10469421;28;20482;-85
2023/05/03 15:08:21;;;;;;;0.38;0.28;;;;;;;;;;10493447;28;20406;-86
2023/05/03 15:13:24;;;;;;;1.10;0.70;;;;;;;;;;10491170;28;20413;-86
2023/05/03 15:18:26;;;;;;;0.80;0.30;;;;;;;;;;10490534;28;20411;-85
2023/05/03 15:23:29;;;;;;;0.90;0.20;;;;;;;;;;10477749;28;20790;-84
2023/05/03 15:28:30;;;;;;;1.10;0.28;;;;;;;;;;10484555;28;20412;-84
2023/05/03 15:33:40;;;;;;;0.88;0.20;;;;;;;;;;10480026;28;20402;-85
2023/05/03 15:38:43;;;;;;;0.20;0.20;;;;;;;;;;10499312;28;20405;-84
2023/05/03 15:43:45;;;;;;;0.20;0.20;;;;;;;;;;10507736;28;20515;-85
2023/05/03 15:48:46;;;;;;;0.93;0.23;;;;;;;;;;10510348;28;20957;-83
2023/05/03 15:53:51;;;;;;;0.30;0.30;;;;;;;;;;10496424;28;20885;-79
2023/05/03 15:58:53;;;;;;;0.40;0.40;;;;;;;;;;10474329;28;20443;-84
2023/05/03 16:03:55;;;;;;;0.60;0.30;;;;;;;;;;10472706;28;20421;-84
2023/05/03 16:08:58;;;;;;;0.30;0.30;;;;;;;;;;10481207;28;20484;-84
2023/05/03 16:14:00;;;;;;;0.40;0.40;;;;;;;;;;10469371;28;20490;-84
2023/05/03 16:19:02;;;;;;;0.30;0.30;;;;;;;;;;10473068;28;20414;-84
2023/05/03 16:24:06;;;;;;;0.20;0.20;;;;;;;;;;10475168;28;20928;-84
2023/05/03 16:29:08;;;;;;;1.63;0.50;;;;;;;;;;10471028;28;20400;-84
2023/05/03 16:34:10;;;;;;;0.60;0.40;;;;;;;;;;10475211;28;20412;-84
2023/05/03 16:39:14;;;;;;;0.70;0.40;;;;;;;;;;10480523;28;20488;-84
2023/05/03 16:44:17;;;;;;;0.30;0.30;;;;;;;;;;10506004;28;20934;-83
2023/05/03 16:49:19;;;;;;;1.10;0.40;;;;;;;;;;10501634;28;20416;-83
2023/05/03 16:54:22;;;;;;;1.90;0.40;;;;;;;;;;10478228;28;20413;-84
2023/05/03 16:59:24;;;;;;;1.20;0.40;;;;;;;;;;10473773;28;20772;-83
2023/05/03 17:04:27;;;;;;;0.40;0.40;;;;;;;;;;10479350;28;20425;-83
2023/05/03 17:09:30;;;;;;;0.70;0.60;;;;;;;;;;10514910;28;20493;-83
2023/05/03 17:14:31;;;;;;;0.55;0.55;;;;;;;;;;10515235;28;20483;-83
2023/05/03 17:19:33;;;;;;;0.30;0.30;;;;;;;;;;10505441;28;20416;-83
2023/05/03 17:24:37;;;;;;;0.47;0.30;;;;;;;;;;10498352;28;20449;-83
2023/05/03 17:29:39;;;;;;;0.32;0.30;;;;;;;;;;10498292;28;21263;-82
2023/05/03 17:34:40;;;;;;;0.30;0.30;;;;;;;;;;10499169;28;20406;-82
2023/05/03 17:39:44;;;;;;;0.70;0.32;;;;;;;;;;10469599;28;20415;-84
2023/05/03 17:44:45;;;;;;;1.13;0.30;;;;;;;;;;10479384;28;20491;-83
2023/05/03 17:49:47;;;;;;;0.30;0.30;;;;;;;;;;10469966;28;20430;-84
2023/05/03 17:54:51;;;;;;;0.40;0.30;;;;;;;;;;10467874;28;21140;-83
2023/05/03 17:59:53;;;;;;;0.22;0.22;;;;;;;;;;10494275;28;20412;-83
2023/05/03 18:04:55;;;;;;;0.70;0.40;;;;;;;;;;10502996;28;20422;-83
2023/05/03 18:10:00;;;;;;;0.77;0.40;;;;;;;;;;10480061;28;20414;-83
2023/05/03 18:15:04;;;;;;;1.57;0.50;;;;;;;;;;10476743;28;20918;-83
2023/05/03 18:20:08;;;;;;;1.27;0.70;;;;;;;;;;10491153;28;21096;-82
2023/05/03 18:25:11;;;;;;;0.98;0.77;;;;;;;;;;10494817;28;21342;-82
2023/05/03 18:30:13;;;;;;;0.70;0.70;;;;;;;;;;10491895;28;20491;-83
2023/05/03 18:35:15;;;;;;;3.33;1.00;;;;;;;;;;10482633;28;20405;-83
2023/05/03 18:40:19;;;;;;;0.83;0.83;;;;;;;;;;10487136;28;20442;-83
2023/05/03 18:45:21;;;;;;;1.00;0.70;;;;;;;;;;10478707;28;20409;-83
2023/05/03 18:50:22;;;;;;;1.10;0.80;;;;;;;;;;10483430;28;20820;-83
2023/05/03 18:55:26;;;;;;;1.03;0.80;;;;;;;;;;10487125;28;20414;-83
2023/05/03 19:00:27;;;;;;;1.20;1.08;;;;;;;;;;10487226;28;20793;-83
2023/05/03 19:05:29;;;;;;;1.80;1.70;;;;;;;;;;10502957;28;20412;-83
2023/05/03 19:10:32;;;;;;;3.63;2.10;;;;;;;;;;10504218;28;20410;-83
2023/05/03 19:15:34;;;;;;;3.93;2.00;;;;;;;;;;10498378;28;20404;-83
2023/05/03 19:20:36;;;;;;;4.40;1.90;;;;;;;;;;10502364;28;20495;-83
2023/05/03 19:25:39;;;;;;;2.33;1.60;;;;;;;;;;10489434;28;20406;-83
2023/05/03 19:30:44;;;;;;;1.92;1.58;;;;;;;;;;10499923;28;20430;-83
2023/05/03 19:35:46;;;;;;;2.40;1.40;;;;;;;;;;10492126;28;20537;-84
2023/05/03 19:40:57;;;;;;;1.40;1.17;;;;;;;;;;10497864;28;20851;-83
2023/05/03 19:45:58;;;;;;;1.48;1.17;;;;;;;;;;10495627;28;20857;-82
2023/05/03 19:51:01;;;;;;;1.20;1.10;;;;;;;;;;10480997;28;21007;-82
2023/05/03 19:56:05;;;;;;;2.38;1.08;;;;;;;;;;10485026;28;20897;-83
2023/05/03 20:01:07;;;;;;;1.20;1.10;;;;;;;;;;10483892;28;20861;-82
2023/05/03 20:06:09;;;;;;;1.52;1.42;;;;;;;;;;10484290;28;20417;-82
2023/05/03 20:11:12;;;;;;;3.33;2.00;;;;;;;;;;10486689;28;20417;-82
2023/05/03 20:16:15;;;;;;;3.15;2.08;;;;;;;;;;10499759;28;20414;-82
2023/05/03 20:21:17;;;;;;;3.05;2.28;;;;;;;;;;10509904;28;20946;-82
2023/05/03 20:26:20;;;;;;;2.50;2.30;;;;;;;;;;10476792;28;21183;-82
2023/05/03 20:31:22;;;;;;;2.70;2.10;;;;;;;;;;10472238;28;20779;-82
2023/05/03 20:36:24;;;;;;;3.60;2.67;;;;;;;;;;10466622;28;20430;-82
2023/05/03 20:41:27;;;;;;;3.40;2.30;;;;;;;;;;10469613;28;20415;-82
2023/05/03 20:46:29;;;;;;;2.87;2.10;;;;;;;;;;10478900;28;20791;-81
2023/05/03 20:51:31;;;;;;;2.67;2.17;;;;;;;;;;10467971;28;20419;-82
2023/05/03 20:56:35;;;;;;;2.60;2.33;;;;;;;;;;10466222;28;20509;-81
2023/05/03 21:01:39;;;;;;;3.97;2.85;;;;;;;;;;10470347;28;20419;-83
2023/05/03 21:06:41;;;;;;;3.20;2.63;;;;;;;;;;10472295;28;20418;-82
2023/05/03 21:11:44;;;;;;;3.05;2.75;;;;;;;;;;10465937;28;20437;-82
2023/05/03 21:16:46;;;;;;;3.83;3.05;;;;;;;;;;10471563;28;20420;-82
2023/05/03 21:21:48;;;;;;;3.75;3.08;;;;;;;;;;10466113;28;20472;-83
2023/05/03 21:26:51;;;;;;;7.50;3.30;;;;;;;;;;10456372;28;20449;-83
2023/05/03 21:31:53;;;;;;;3.60;2.97;;;;;;;;;;10483083;28;20400;-83
2023/05/03 21:36:54;;;;;;;4.35;3.45;;;;;;;;;;10470593;28;20407;-83
2023/05/03 21:41:58;;;;;;;4.20;3.20;;;;;;;;;;10476277;28;20500;-82
2023/05/03 21:47:00;;;;;;;4.20;3.22;;;;;;;;;;10490995;28;20410;-83
2023/05/03 21:52:02;;;;;;;3.40;3.10;;;;;;;;;;10507895;28;20577;-83
2023/05/03 21:57:05;;;;;;;5.00;3.20;;;;;;;;;;10516366;28;21101;-83
2023/05/03 22:02:07;;;;;;;4.95;3.22;;;;;;;;;;10491975;28;20784;-83
2023/05/03 22:07:09;;;;;;;3.77;3.30;;;;;;;;;;10487019;28;20489;-83
2023/05/03 22:12:12;;;;;;;5.18;3.47;;;;;;;;;;10480755;28;20412;-82
2023/05/03 22:17:20;;;;;;;3.63;3.07;;;;;;;;;;10483740;28;20829;-83
2023/05/03 22:22:22;;;;;;;4.30;3.60;;;;;;;;;;10482722;28;20533;-83
2023/05/03 22:27:25;;;;;;;3.90;3.38;;;;;;;;;;10481990;28;20398;-82
2023/05/03 22:32:27;;;;;;;3.57;3.10;;;;;;;;;;10479013;28;20418;-82
2023/05/03 22:37:28;;;;;;;3.72;3.40;;;;;;;;;;10471867;28;20426;-82
2023/05/03 22:42:32;;;;;;;4.47;3.22;;;;;;;;;;10471524;28;20418;-83
2023/05/03 22:47:33;;;;;;;4.37;3.23;;;;;;;;;;10473137;28;20418;-82
2023/05/03 22:52:35;;;;;;;4.70;3.00;;;;;;;;;;10470047;28;21101;-82
2023/05/03 22:57:38;;;;;;;3.65;3.25;;;;;;;;;;10471868;28;20943;-82
2023/05/03 23:02:40;;;;;;;3.50;3.20;;;;;;;;;;10471709;28;20433;-83
2023/05/03 23:07:42;;;;;;;4.65;3.17;;;;;;;;;;10473376;28;20406;-82
2023/05/03 23:12:45;;;;;;;4.70;3.10;;;;;;;;;;10470633;28;20414;-82
2023/05/03 23:17:47;;;;;;;5.13;3.03;;;;;;;;;;10470536;28;20404;-82
2023/05/03 23:22:48;;;;;;;4.50;2.72;;;;;;;;;;10474185;28;20444;-82
2023/05/03 23:27:52;;;;;;;3.67;3.27;;;;;;;;;;10469866;28;20400;-82
2023/05/03 23:32:53;;;;;;;2.85;2.53;;;;;;;;;;10470695;28;20962;-82
2023/05/03 23:37:56;;;;;;;3.37;2.83;;;;;;;;;;10472565;28;20400;-82
2023/05/03 23:42:59;;;;;;;4.20;3.05;;;;;;;;;;10471165;28;20441;-82
2023/05/03 23:48:01;;;;;;;3.42;2.97;;;;;;;;;;10469380;28;20409;-82
2023/05/03 23:53:03;;;;;;;3.53;2.97;;;;;;;;;;10461480;28;20415;-83
2023/05/03 23:58:07;;;;;;;3.35;2.90;;;;;;;;;;10467484;28;20467;-83
